Joel, Wisconsin
Current Conditions -  °F | °C
As of 3:55 AM on Sunday 23 Nov 2014 (Local Time) from KOEO Reporting Station
Moderate Fog Moderate Fog  
Wind Chill:   Ceiling: 300
Heat Index:   Visibility: 0.5mi
Dew Point:   Wind: 7mph
Humidity: 100%   Direction: 190°S
Pressure: 29.47"   Gusts: NA
Location:  45.3559°N, 92.3527°W
Report Text: KOEO 230955Z AUTO 19006KT 1/2SM FG OVC003 07/07 A2947 RMK AO2 T00680068
Loading
Personal Weather Stations






























Interactive Weather Map New forecast layout! Learn more

10-Day Weather Forecast

Advertisements
Track Severe Weather on mobile